Time;durP1;ratioP1;P1;durP2;ratioP2;P2;SDS_P1;SDS_P2;PMS_P1;PMS_P2;Temp;Humidity;BMP_temperature;BMP_pressure;BME280_temperature;BME280_humidity;BME280_pressure;Samples;Min_cycle;Max_cycle;Signal;HPM_P1;HPM_P2
2022/03/04 00:01:35;;;;;;;18.08;8.52;;;;;;;3.06;68.57;100139.81;4970015;28;20030;-60
2022/03/04 00:04:01;;;;;;;20.00;9.60;;;;;;;3.15;67.90;100145.94;4967383;28;20110;-60
2022/03/04 00:06:26;;;;;;;18.75;8.30;;;;;;;3.18;66.72;100145.94;4964922;28;20090;-59
2022/03/04 00:08:52;;;;;;;21.52;8.82;;;;;;;3.19;66.58;100152.06;4970598;28;20026;-59
2022/03/04 00:11:18;;;;;;;20.35;9.23;;;;;;;3.17;65.45;100153.81;4970854;28;20035;-59
2022/03/04 00:13:44;;;;;;;16.08;9.23;;;;;;;3.17;66.68;100161.69;4969278;28;20757;-59
2022/03/04 00:16:10;;;;;;;17.42;10.02;;;;;;;3.13;67.59;100167.84;4970037;28;20035;-59
2022/03/04 00:18:35;;;;;;;19.05;9.43;;;;;;;3.10;69.08;100167.84;4969974;28;20022;-59
2022/03/04 00:21:02;;;;;;;18.70;10.02;;;;;;;3.09;69.66;100176.59;4969468;28;20449;-60
2022/03/04 00:23:28;;;;;;;16.33;9.65;;;;;;;3.09;69.89;100168.72;4969591;28;20030;-59
2022/03/04 00:25:53;;;;;;;17.50;9.75;;;;;;;3.02;71.02;100169.59;4969298;28;20039;-59
2022/03/04 00:28:18;;;;;;;17.52;9.75;;;;;;;3.00;71.07;100171.34;4969576;28;20228;-59
2022/03/04 00:30:44;;;;;;;17.55;9.63;;;;;;;2.92;69.65;100173.97;4969435;28;20034;-59
2022/03/04 00:33:09;;;;;;;14.93;8.77;;;;;;;2.84;70.09;100173.09;4970227;28;20050;-59
2022/03/04 00:35:35;;;;;;;16.10;7.63;;;;;;;2.82;70.16;100173.97;4970287;28;20464;-59
2022/03/04 00:38:00;;;;;;;17.90;9.88;;;;;;;2.78;70.59;100169.59;4969481;28;20037;-59
2022/03/04 00:40:25;;;;;;;18.70;8.63;;;;;;;2.79;70.51;100179.19;4970353;28;20042;-59
2022/03/04 00:42:51;;;;;;;16.77;8.63;;;;;;;2.77;71.72;100170.47;4970441;28;20501;-60
2022/03/04 00:45:17;;;;;;;21.30;9.35;;;;;;;2.70;72.34;100173.06;4969949;28;20027;-60
2022/03/04 00:47:42;;;;;;;16.40;9.18;;;;;;;2.62;72.47;100176.56;4969590;28;20093;-60
2022/03/04 00:50:09;;;;;;;12.70;8.65;;;;;;;2.56;73.52;100169.56;4970236;28;20073;-60
2022/03/04 00:52:34;;;;;;;18.92;9.25;;;;;;;2.52;73.29;100175.66;4968459;28;20034;-60
2022/03/04 00:55:00;;;;;;;20.63;10.30;;;;;;;2.46;73.46;100194.03;4968202;28;20031;-60
2022/03/04 00:57:26;;;;;;;19.67;9.20;;;;;;;2.41;72.91;100172.16;4970378;28;20041;-60
2022/03/04 00:59:51;;;;;;;18.70;10.02;;;;;;;2.37;74.30;100172.16;4970076;28;20031;-60
2022/03/04 01:02:16;;;;;;;17.75;9.07;;;;;;;2.33;74.72;100171.25;4969933;28;20393;-60
2022/03/04 01:04:42;;;;;;;16.02;8.65;;;;;;;2.34;75.01;100162.50;4969349;28;20058;-60
2022/03/04 01:07:07;;;;;;;15.80;8.90;;;;;;;2.31;75.01;100167.75;4970053;28;20385;-60
2022/03/04 01:09:33;;;;;;;15.70;8.77;;;;;;;2.26;76.11;100169.47;4969562;28;20064;-60
2022/03/04 01:11:59;;;;;;;18.52;9.43;;;;;;;2.24;76.68;100167.75;4969365;28;20110;-60
2022/03/04 01:14:24;;;;;;;18.98;9.40;;;;;;;2.19;76.66;100175.56;4969307;28;20030;-60
2022/03/04 01:16:50;;;;;;;19.23;9.63;;;;;;;2.17;75.67;100169.47;4969273;28;20026;-60
2022/03/04 01:19:16;;;;;;;18.52;9.63;;;;;;;2.13;76.93;100177.31;4969306;28;20750;-60
2022/03/04 01:21:41;;;;;;;21.38;9.55;;;;;;;2.11;76.53;100165.94;4970236;28;20030;-60
2022/03/04 01:24:07;;;;;;;19.48;9.55;;;;;;;2.07;76.74;100167.69;4969426;28;20030;-60
2022/03/04 01:26:33;;;;;;;15.23;9.65;;;;;;;2.00;77.09;100165.91;4969621;28;20031;-60
2022/03/04 01:28:58;;;;;;;20.15;9.60;;;;;;;1.96;78.44;100164.13;4968141;28;20123;-60
2022/03/04 01:31:24;;;;;;;17.98;9.48;;;;;;;1.92;78.84;100159.75;4968859;28;20052;-60
2022/03/04 01:33:49;;;;;;;24.60;10.27;;;;;;;1.87;78.20;100160.59;4969970;28;20549;-60
2022/03/04 01:36:15;;;;;;;18.77;9.50;;;;;;;1.86;78.38;100156.22;4969801;28;20043;-60
2022/03/04 01:38:40;;;;;;;18.77;9.80;;;;;;;1.82;78.69;100139.59;4969603;28;20449;-60
2022/03/04 01:41:06;;;;;;;16.08;9.60;;;;;;;1.81;78.60;100144.84;4968492;28;20059;-60
2022/03/04 01:43:31;;;;;;;16.83;8.90;;;;;;;1.78;78.56;100148.31;4969755;28;20038;-60
2022/03/04 01:46:11;;;;;;;22.17;10.30;;;;;;;1.76;78.79;100144.81;4968679;28;20023;-60
2022/03/04 01:48:37;;;;;;;17.75;10.10;;;;;;;1.78;79.71;100148.31;4970090;28;20050;-60
2022/03/04 01:51:02;;;;;;;20.73;10.45;;;;;;;1.86;79.26;100136.09;4969256;28;20154;-60
2022/03/04 01:53:28;;;;;;;22.05;9.57;;;;;;;1.83;78.73;100140.50;4969398;28;20430;-60
2022/03/04 01:55:53;;;;;;;23.63;10.82;;;;;;;1.87;79.19;100135.25;4969725;28;20019;-60
2022/03/04 01:58:19;;;;;;;17.45;9.38;;;;;;;1.87;78.90;100137.88;4969408;28;20035;-60
2022/03/04 02:00:44;;;;;;;20.52;10.73;;;;;;;1.82;79.73;100134.34;4967662;28;20076;-60
2022/03/04 02:03:11;;;;;;;17.85;9.68;;;;;;;1.76;79.84;100144.81;4969263;28;20496;-60
2022/03/04 02:05:37;;;;;;;15.95;9.93;;;;;;;1.66;78.94;100127.31;4969262;28;20093;-60
2022/03/04 02:08:02;;;;;;;22.70;9.88;;;;;;;1.67;79.11;100134.28;4969704;28;20109;-60
2022/03/04 02:10:28;;;;;;;18.95;10.52;;;;;;;1.68;80.63;100136.03;4969201;28;20038;-60
2022/03/04 02:12:53;;;;;;;18.77;9.93;;;;;;;1.65;80.69;100130.78;4969693;28;20033;-60
2022/03/04 02:15:19;;;;;;;18.77;9.75;;;;;;;1.64;80.16;100129.03;4969295;28;20035;-60
2022/03/04 02:17:44;;;;;;;21.65;10.48;;;;;;;1.58;80.80;100129.00;4969059;28;20078;-60
2022/03/04 02:20:11;;;;;;;20.73;10.75;;;;;;;1.54;81.43;100135.09;4968084;28;20046;-60
2022/03/04 02:22:36;;;;;;;18.30;9.48;;;;;;;1.53;81.48;100137.72;4969105;28;20027;-60
2022/03/04 02:25:05;;;;;;;20.08;9.90;;;;;;;1.50;81.46;100150.81;4968934;28;20059;-60
2022/03/04 02:27:32;;;;;;;16.13;9.52;;;;;;;1.52;81.63;100135.94;4969229;28;20034;-60
2022/03/04 02:29:57;;;;;;;22.92;10.82;;;;;;;1.53;82.42;100140.31;4968880;28;20037;-60
2022/03/04 02:32:23;;;;;;;17.85;9.70;;;;;;;1.57;81.95;100156.06;4969350;28;20382;-59
2022/03/04 02:34:48;;;;;;;17.42;9.02;;;;;;;1.59;82.59;100156.06;4969345;28;20031;-60
2022/03/04 02:37:14;;;;;;;18.13;10.13;;;;;;;1.54;82.15;100153.44;4969211;28;20101;-60
2022/03/04 02:39:40;;;;;;;16.98;8.90;;;;;;;1.55;82.51;100157.81;4968964;28;20468;-60
2022/03/04 02:42:05;;;;;;;16.40;9.52;;;;;;;1.53;82.66;100162.19;4970322;28;20033;-60
2022/03/04 02:44:30;;;;;;;20.00;9.55;;;;;;;1.51;81.02;100161.28;4971632;28;20065;-59
2022/03/04 02:46:56;;;;;;;19.73;9.77;;;;;;;1.49;81.23;100170.88;4972600;28;20026;-59
2022/03/04 02:49:22;;;;;;;17.70;9.45;;;;;;;1.55;82.46;100165.66;4971173;28;20054;-59
2022/03/04 02:51:47;;;;;;;17.90;9.02;;;;;;;1.49;81.64;100170.88;4971613;28;20077;-59
2022/03/04 02:54:12;;;;;;;19.77;9.88;;;;;;;1.47;81.05;100175.22;4971365;28;20031;-59
2022/03/04 02:56:38;;;;;;;16.65;9.70;;;;;;;1.42;80.55;100163.84;4971349;28;20022;-59
2022/03/04 02:59:03;;;;;;;22.65;10.45;;;;;;;1.42;81.16;100169.09;4971973;28;20027;-59
2022/03/04 03:01:29;;;;;;;16.58;10.20;;;;;;;1.40;80.78;100168.19;4971549;28;20386;-59
2022/03/04 03:03:54;;;;;;;18.40;9.07;;;;;;;1.38;80.80;100172.56;4970163;28;20035;-59
2022/03/04 03:06:20;;;;;;;22.75;9.95;;;;;;;1.41;81.17;100177.81;4971405;28;20137;-59
2022/03/04 03:08:45;;;;;;;18.13;9.27;;;;;;;1.38;81.20;100172.56;4972188;28;20026;-59
2022/03/04 03:11:12;;;;;;;22.70;10.07;;;;;;;1.35;80.33;100172.56;4957453;28;20027;-59
2022/03/04 03:13:37;;;;;;;20.75;9.32;;;;;;;1.30;81.37;100169.03;4952965;29;20039;-59
2022/03/04 03:16:03;;;;;;;18.55;9.98;;;;;;;1.31;81.35;100161.16;4953470;28;20051;-59
2022/03/04 03:18:29;;;;;;;17.45;9.05;;;;;;;1.35;80.50;100162.06;4972170;28;20138;-59
2022/03/04 03:20:55;;;;;;;22.38;8.95;;;;;;;1.36;80.44;100163.81;4972043;28;20032;-59
2022/03/04 03:23:20;;;;;;;19.25;9.52;;;;;;;1.28;80.18;100170.75;4971514;28;20490;-59
2022/03/04 03:25:45;;;;;;;22.40;9.65;;;;;;;1.25;81.04;100171.59;4971941;28;20054;-59
2022/03/04 03:28:11;;;;;;;25.33;10.25;;;;;;;1.26;81.02;100180.34;4971416;28;20697;-59
2022/03/04 03:30:36;;;;;;;20.50;9.80;;;;;;;1.33;80.57;100180.38;4970671;28;20027;-59
2022/03/04 03:33:02;;;;;;;17.83;9.65;;;;;;;1.29;80.21;100189.09;4971155;28;20035;-59
2022/03/04 03:35:27;;;;;;;21.08;10.25;;;;;;;1.31;79.46;100187.38;4971687;28;20122;-60
2022/03/04 03:37:53;;;;;;;17.45;10.48;;;;;;;1.39;79.76;100190.03;4971856;28;20498;-59
2022/03/04 03:40:18;;;;;;;22.80;10.77;;;;;;;1.32;80.42;100186.50;4971606;28;20041;-59
2022/03/04 03:42:44;;;;;;;19.30;10.43;;;;;;;1.29;81.38;100188.22;4971123;28;20039;-60
2022/03/04 03:45:11;;;;;;;26.70;10.32;;;;;;;1.27;81.63;100179.47;4971721;28;20093;-60
2022/03/04 03:47:38;;;;;;;18.85;10.93;;;;;;;1.27;81.52;100182.06;4970398;28;20038;-60
2022/03/04 03:50:06;;;;;;;19.25;10.07;;;;;;;1.21;80.66;100172.44;4970806;28;20034;-60
2022/03/04 03:52:31;;;;;;;19.38;9.75;;;;;;;1.26;81.58;100177.72;4971153;28;20121;-59
2022/03/04 03:54:57;;;;;;;16.50;9.75;;;;;;;1.38;81.42;100182.16;4971591;28;20113;-59
2022/03/04 03:57:23;;;;;;;20.17;11.32;;;;;;;1.34;80.93;100182.16;4971041;28;20030;-59
2022/03/04 03:59:48;;;;;;;20.33;9.52;;;;;;;1.25;81.31;100166.34;4971276;28;20027;-59
2022/03/04 04:02:14;;;;;;;17.35;9.88;;;;;;;1.38;80.79;100183.06;4971062;28;20027;-59
2022/03/04 04:04:41;;;;;;;22.08;9.85;;;;;;;1.41;81.01;100180.44;4970498;28;20054;-59
2022/03/04 04:07:09;;;;;;;20.45;9.15;;;;;;;1.38;81.17;100184.78;4970316;28;20545;-60
2022/03/04 04:09:35;;;;;;;16.75;8.93;;;;;;;1.35;81.14;100181.28;4970273;28;20026;-59
2022/03/04 04:12:00;;;;;;;15.13;8.27;;;;;;;1.27;80.97;100180.34;4970614;28;20094;-59
2022/03/04 04:14:29;;;;;;;20.23;10.20;;;;;;;1.18;81.16;100185.53;4970418;28;20061;-59
2022/03/04 04:16:55;;;;;;;18.83;10.02;;;;;;;1.17;81.31;100188.16;4970497;28;20077;-59
2022/03/04 04:19:22;;;;;;;17.85;9.20;;;;;;;1.09;82.05;100174.97;4970154;28;20114;-59
2022/03/04 04:21:47;;;;;;;17.13;9.35;;;;;;;1.06;82.33;100179.31;4970327;28;20019;-59
2022/03/04 04:24:13;;;;;;;17.65;9.13;;;;;;;1.09;81.97;100184.56;4970189;28;20038;-59
2022/03/04 04:26:39;;;;;;;27.45;10.63;;;;;;;1.03;82.75;100190.66;4970751;28;20114;-59
2022/03/04 04:29:04;;;;;;;19.73;10.88;;;;;;;0.95;83.22;100187.09;4970736;28;20114;-59
2022/03/04 04:31:32;;;;;;;19.23;9.80;;;;;;;0.89;83.07;100192.25;4970086;28;20030;-59
2022/03/04 04:33:59;;;;;;;19.45;9.70;;;;;;;0.82;83.86;100195.72;4970595;28;20113;-59
2022/03/04 04:36:25;;;;;;;21.40;9.90;;;;;;;0.86;84.47;100188.72;4970422;28;20066;-59
2022/03/04 04:38:51;;;;;;;18.35;9.43;;;;;;;0.88;84.39;100200.09;4970296;28;20115;-59
2022/03/04 04:41:17;;;;;;;21.83;10.43;;;;;;;0.86;84.35;100191.34;4969166;28;20031;-60
2022/03/04 04:43:42;;;;;;;17.75;8.88;;;;;;;0.83;85.09;100192.22;4970717;28;20030;-59
2022/03/04 04:46:08;;;;;;;21.67;10.00;;;;;;;0.84;85.43;100198.34;4970715;28;20029;-59
2022/03/04 04:48:33;;;;;;;20.13;10.80;;;;;;;0.81;85.48;100201.78;4969361;28;20029;-59
2022/03/04 04:50:59;;;;;;;18.33;10.75;;;;;;;0.83;84.73;100207.03;4970200;28;20492;-58
2022/03/04 04:53:25;;;;;;;22.35;10.05;;;;;;;0.84;85.16;100206.19;4970059;28;20097;-59
2022/03/04 04:55:51;;;;;;;15.57;9.50;;;;;;;0.85;84.80;100210.56;4950799;29;20395;-59
2022/03/04 04:58:16;;;;;;;17.88;9.27;;;;;;;0.71;85.23;100188.63;4950966;29;20027;-58
2022/03/04 05:00:42;;;;;;;21.90;11.05;;;;;;;0.77;85.56;100213.13;4950903;29;20427;-58
2022/03/04 05:03:08;;;;;;;18.35;9.82;;;;;;;0.77;85.09;100213.13;4969993;28;20022;-58
2022/03/04 05:05:34;;;;;;;20.88;10.02;;;;;;;0.80;85.37;100207.00;4969494;28;20057;-58
2022/03/04 05:08:00;;;;;;;24.48;10.70;;;;;;;0.80;85.68;100209.63;4970355;28;20026;-59
2022/03/04 05:10:25;;;;;;;14.73;9.73;;;;;;;0.82;86.12;100215.78;4968634;28;20470;-59
2022/03/04 05:12:51;;;;;;;17.75;10.00;;;;;;;0.82;85.50;100215.78;4968600;28;20042;-59
2022/03/04 05:15:16;;;;;;;16.60;10.25;;;;;;;0.75;84.72;100224.41;4969347;28;20073;-61
2022/03/04 05:17:42;;;;;;;19.92;10.00;;;;;;;0.71;85.51;100223.50;4969814;28;20023;-59
2022/03/04 05:20:08;;;;;;;19.30;10.75;;;;;;;0.67;85.51;100226.09;4969443;28;20687;-59
2022/03/04 05:22:34;;;;;;;26.67;11.00;;;;;;;0.65;85.56;100233.91;4969578;28;20027;-59
2022/03/04 05:24:59;;;;;;;21.38;11.15;;;;;;;0.65;85.76;100226.06;4969220;28;20034;-58
2022/03/04 05:27:25;;;;;;;16.98;10.13;;;;;;;0.68;85.07;100228.72;4969695;28;20438;-59
2022/03/04 05:29:50;;;;;;;34.17;10.23;;;;;;;0.65;85.19;100235.66;4968927;28;20094;-59
2022/03/04 05:32:15;;;;;;;27.40;9.57;;;;;;;0.56;85.44;100238.19;4969294;28;20026;-59
2022/03/04 05:34:41;;;;;;;22.35;9.25;;;;;;;0.57;85.34;100234.69;4970030;28;20717;-59
2022/03/04 05:37:07;;;;;;;22.88;10.38;;;;;;;0.58;85.87;100236.44;4969804;28;20066;-59
2022/03/04 05:39:32;;;;;;;20.45;10.95;;;;;;;0.56;86.31;100232.97;4969312;28;20023;-59
2022/03/04 05:41:58;;;;;;;19.80;11.13;;;;;;;0.61;85.99;100242.59;4969727;28;20078;-59
2022/03/04 05:44:25;;;;;;;23.42;10.90;;;;;;;0.64;86.31;100252.22;4969636;28;20025;-59
2022/03/04 05:46:50;;;;;;;26.23;10.50;;;;;;;0.67;86.06;100244.41;4969759;28;20449;-59
2022/03/04 05:49:15;;;;;;;20.98;10.93;;;;;;;0.69;85.90;100253.16;4969518;28;20023;-59
2022/03/04 05:51:41;;;;;;;18.15;10.77;;;;;;;0.60;86.64;100245.19;4969118;28;20098;-59
2022/03/04 05:54:06;;;;;;;19.52;10.32;;;;;;;0.71;86.78;100257.53;4967331;28;20397;-59
2022/03/04 05:56:32;;;;;;;20.80;11.38;;;;;;;0.73;87.10;100262.78;4969674;28;20030;-59
2022/03/04 05:58:57;;;;;;;34.22;11.38;;;;;;;0.75;87.11;100261.06;4969234;28;20127;-59
2022/03/04 06:01:22;;;;;;;20.30;9.98;;;;;;;0.74;87.08;100259.31;4969584;28;20030;-59
2022/03/04 06:03:48;;;;;;;23.67;11.57;;;;;;;0.66;86.77;100264.44;4969610;28;20035;-59
2022/03/04 06:06:13;;;;;;;25.27;11.95;;;;;;;0.69;86.98;100271.47;4968557;28;20059;-59
2022/03/04 06:08:39;;;;;;;18.52;10.52;;;;;;;0.66;87.25;100272.31;4968707;28;20054;-59
2022/03/04 06:11:10;;;;;;;25.05;11.60;;;;;;;0.70;87.38;100278.47;4968981;28;20034;-59
2022/03/04 06:13:36;;;;;;;20.23;11.40;;;;;;;0.67;87.48;100284.56;4969204;28;20561;-59
2022/03/04 06:16:03;;;;;;;26.33;11.65;;;;;;;0.65;87.33;100285.38;4970754;28;20039;-59
2022/03/04 06:18:28;;;;;;;29.60;11.15;;;;;;;0.70;87.60;100283.69;4972755;28;20026;-59
2022/03/04 06:20:54;;;;;;;25.27;12.13;;;;;;;0.65;88.12;100274.91;4972808;28;20093;-59
2022/03/04 06:23:19;;;;;;;23.83;10.50;;;;;;;0.79;88.26;100289.91;4972630;28;20478;-59
2022/03/04 06:25:45;;;;;;;23.65;10.50;;;;;;;0.83;87.67;100290.81;4972787;28;20034;-59
2022/03/04 06:28:11;;;;;;;24.70;11.60;;;;;;;0.91;87.50;100295.28;4973024;28;20034;-59
2022/03/04 06:30:36;;;;;;;23.27;12.00;;;;;;;0.98;87.01;100296.22;4971061;28;20090;-59
2022/03/04 06:36:04;;;;;;;22.25;11.73;;;;;;;1.11;87.23;100296.34;4936030;28;20054;-60
2022/03/04 06:38:32;;;;;;;25.90;12.15;;;;;;;1.16;86.77;100292.03;4968063;28;20759;-60
2022/03/04 06:40:58;;;;;;;25.25;11.85;;;;;;;1.24;86.62;100292.09;4962156;28;20038;-59
2022/03/04 06:43:23;;;;;;;28.30;13.30;;;;;;;1.32;85.89;100308.75;4970668;28;20093;-60
2022/03/04 06:45:49;;;;;;;24.13;11.40;;;;;;;1.38;85.32;100304.44;4971906;28;20039;-59
2022/03/04 06:48:17;;;;;;;22.08;12.00;;;;;;;1.47;85.48;100298.41;4970881;28;20030;-59
2022/03/04 06:50:43;;;;;;;25.25;11.70;;;;;;;1.57;84.71;100310.72;4971799;28;20030;-61
2022/03/04 06:53:09;;;;;;;21.38;12.52;;;;;;;1.65;84.49;100303.78;4972201;28;20038;-60
2022/03/04 06:55:35;;;;;;;22.73;11.80;;;;;;;1.71;83.89;100306.47;4971567;28;20037;-60
2022/03/04 06:58:00;;;;;;;27.63;13.15;;;;;;;1.87;83.07;100321.44;4971458;28;20031;-59
2022/03/04 07:00:27;;;;;;;26.80;13.40;;;;;;;2.01;82.64;100308.44;4970713;28;20058;-60
2022/03/04 07:02:53;;;;;;;22.33;12.00;;;;;;;2.16;82.22;100319.88;4971985;28;20035;-61
2022/03/04 07:05:21;;;;;;;31.88;13.10;;;;;;;2.25;80.69;100317.31;4971971;28;20058;-61
2022/03/04 07:07:50;;;;;;;25.67;12.30;;;;;;;2.34;79.97;100322.59;4972297;28;20018;-61
2022/03/04 07:10:16;;;;;;;24.95;12.60;;;;;;;2.41;80.01;100305.13;4971927;28;20419;-61
2022/03/04 07:12:41;;;;;;;22.85;12.50;;;;;;;3.88;86.19;100318.53;4972369;28;20128;-60
2022/03/04 07:15:08;;;;;;;26.80;12.77;;;;;;;6.70;72.00;100306.09;4971375;28;20074;-60
2022/03/04 07:17:33;;;;;;;28.60;14.82;;;;;;;9.32;56.91;100296.09;4971765;28;20030;-60
2022/03/04 07:19:59;;;;;;;30.48;14.00;;;;;;;11.33;47.84;100296.81;4971679;28;20023;-60
2022/03/04 07:22:24;;;;;;;24.00;13.32;;;;;;;12.73;44.80;100302.66;4971653;28;20034;-60
2022/03/04 07:24:50;;;;;;;22.95;11.80;;;;;;;13.88;41.40;100301.69;4969783;28;20113;-60
2022/03/04 07:27:15;;;;;;;32.83;11.82;;;;;;;14.79;39.76;100303.97;4970018;28;20037;-60
2022/03/04 07:29:41;;;;;;;23.23;10.57;;;;;;;15.17;37.90;100303.09;4969539;28;20547;-60
2022/03/04 07:32:06;;;;;;;22.63;11.38;;;;;;;15.94;35.88;100307.38;4970250;28;20117;-60
2022/03/04 07:34:32;;;;;;;21.35;10.45;;;;;;;16.14;35.64;100320.69;4971311;28;20066;-60
2022/03/04 07:36:57;;;;;;;23.30;10.20;;;;;;;16.26;34.96;100320.06;4972566;28;20026;-60
2022/03/04 07:39:23;;;;;;;26.92;12.80;;;;;;;16.38;34.96;100320.31;4970400;28;20194;-60
2022/03/04 07:41:48;;;;;;;30.02;14.45;;;;;;;16.71;34.42;100328.44;4971559;28;20089;-61
2022/03/04 07:44:14;;;;;;;30.08;14.27;;;;;;;16.92;33.15;100324.63;4971947;28;20019;-61
2022/03/04 07:46:40;;;;;;;29.48;12.80;;;;;;;17.26;32.57;100327.25;4970734;28;20046;-60
2022/03/04 07:49:06;;;;;;;20.42;10.25;;;;;;;17.56;31.97;100330.94;4970472;28;20034;-60
2022/03/04 07:51:31;;;;;;;17.05;9.88;;;;;;;18.17;31.82;100329.16;4970673;28;20113;-61
2022/03/04 07:53:57;;;;;;;20.60;11.13;;;;;;;18.37;31.20;100326.16;4970541;28;20035;-61
2022/03/04 07:56:25;;;;;;;21.08;10.43;;;;;;;18.05;31.47;100335.28;4971523;28;20560;-61
2022/03/04 07:58:51;;;;;;;19.23;10.45;;;;;;;18.43;30.85;100332.19;4971879;28;20041;-60
2022/03/04 08:01:17;;;;;;;18.70;10.82;;;;;;;18.63;30.49;100338.13;4969010;28;20022;-60
2022/03/04 08:03:46;;;;;;;20.35;10.93;;;;;;;18.68;30.92;100336.00;4970083;28;20459;-60
2022/03/04 08:06:12;;;;;;;21.50;10.93;;;;;;;18.72;29.97;100337.56;4970657;28;20097;-60
2022/03/04 08:08:38;;;;;;;18.88;10.73;;;;;;;18.62;30.66;100340.88;4971233;28;20022;-59
2022/03/04 08:11:03;;;;;;;19.67;10.75;;;;;;;18.90;30.15;100352.59;4971107;28;20549;-58
2022/03/04 08:13:29;;;;;;;23.75;11.15;;;;;;;19.17;29.54;100350.03;4971210;28;20386;-60
2022/03/04 08:15:54;;;;;;;19.27;10.52;;;;;;;19.45;29.23;100339.28;4971505;28;20067;-59
2022/03/04 08:18:20;;;;;;;19.02;10.32;;;;;;;19.74;28.64;100350.88;4970844;28;20037;-60
2022/03/04 08:20:45;;;;;;;18.85;10.80;;;;;;;19.49;28.96;100351.59;4970386;28;20132;-59
2022/03/04 08:23:11;;;;;;;21.73;10.57;;;;;;;19.69;29.30;100356.59;4971469;28;20031;-60
2022/03/04 08:25:38;;;;;;;21.73;12.18;;;;;;;19.78;28.58;100347.03;4970331;28;20050;-59
2022/03/04 08:28:03;;;;;;;20.38;10.13;;;;;;;19.25;28.87;100353.13;4971456;28;20390;-59
2022/03/04 08:30:29;;;;;;;17.55;10.45;;;;;;;18.85;29.13;100348.44;4968903;28;20037;-59
2022/03/04 08:32:54;;;;;;;22.70;9.93;;;;;;;18.86;29.00;100351.03;4969907;28;20066;-59
2022/03/04 08:35:20;;;;;;;22.25;10.93;;;;;;;18.87;29.13;100350.09;4970348;28;20037;-59
2022/03/04 08:37:46;;;;;;;21.38;11.07;;;;;;;18.34;30.42;100349.72;4971153;28;20514;-61
2022/03/04 08:40:11;;;;;;;18.70;10.82;;;;;;;18.66;30.25;100354.09;4971440;28;20105;-60
2022/03/04 08:42:39;;;;;;;21.67;11.05;;;;;;;18.95;29.42;100355.00;4971599;28;20038;-60
2022/03/04 08:45:05;;;;;;;19.75;11.07;;;;;;;18.98;29.92;100354.81;4970252;28;20037;-60
2022/03/04 08:47:30;;;;;;;20.80;11.73;;;;;;;18.77;30.21;100356.13;4970614;28;20033;-60
2022/03/04 08:49:56;;;;;;;19.95;10.70;;;;;;;18.50;30.72;100352.41;4969963;28;20422;-60
2022/03/04 08:52:22;;;;;;;21.15;10.98;;;;;;;18.37;31.36;100350.41;4971360;28;20470;-60
2022/03/04 08:54:47;;;;;;;20.48;11.05;;;;;;;17.89;31.20;100355.94;4971256;28;20061;-60
2022/03/04 08:57:13;;;;;;;21.50;11.85;;;;;;;17.96;31.41;100357.34;4971241;28;20132;-60
2022/03/04 08:59:39;;;;;;;25.35;11.70;;;;;;;17.45;32.00;100357.56;4969447;28;20022;-60
2022/03/04 09:02:05;;;;;;;20.08;11.77;;;;;;;17.16;33.32;100358.25;4971558;28;20487;-60
2022/03/04 09:04:30;;;;;;;19.88;11.27;;;;;;;17.48;31.58;100360.09;4968976;28;20103;-60
2022/03/04 09:06:56;;;;;;;21.17;11.82;;;;;;;17.38;32.19;100350.75;4970645;28;20058;-60
2022/03/04 09:09:22;;;;;;;24.30;13.48;;;;;;;17.09;32.92;100362.22;4970578;28;20018;-60
2022/03/04 09:11:47;;;;;;;32.88;16.05;;;;;;;17.16;32.72;100358.25;4969764;28;20536;-60
2022/03/04 09:14:13;;;;;;;26.20;15.13;;;;;;;16.55;33.76;100359.75;4970155;28;20018;-60
2022/03/04 09:16:38;;;;;;;28.35;16.05;;;;;;;16.55;33.29;100352.56;4971250;28;20038;-60
2022/03/04 09:19:03;;;;;;;32.28;17.60;;;;;;;16.45;34.44;100355.75;4970480;28;20023;-60
2022/03/04 09:21:29;;;;;;;27.92;16.27;;;;;;;16.55;33.79;100354.38;4970598;28;20439;-60
2022/03/04 09:23:56;;;;;;;29.75;16.20;;;;;;;16.59;33.56;100353.28;4970800;28;20055;-60
2022/03/04 09:26:21;;;;;;;31.23;15.15;;;;;;;16.64;33.91;100356.56;4969847;28;20537;-60
2022/03/04 09:28:47;;;;;;;25.40;14.75;;;;;;;16.49;34.19;100352.03;4970921;28;20031;-60
2022/03/04 09:31:13;;;;;;;31.35;14.95;;;;;;;16.80;34.54;100360.22;4969812;28;20023;-60
2022/03/04 09:33:39;;;;;;;29.50;16.92;;;;;;;16.87;33.70;100351.75;4969727;28;20037;-60
2022/03/04 09:36:05;;;;;;;27.40;14.45;;;;;;;16.89;33.87;100354.34;4969263;28;20030;-60
2022/03/04 09:38:32;;;;;;;23.65;13.80;;;;;;;16.66;33.34;100362.75;4970305;28;20058;-60
2022/03/04 09:40:59;;;;;;;28.52;13.10;;;;;;;17.04;33.57;100358.91;4970557;28;20031;-60
2022/03/04 09:43:24;;;;;;;29.58;14.80;;;;;;;17.34;33.44;100368.03;4970664;28;20027;-60
2022/03/04 09:45:50;;;;;;;21.02;11.65;;;;;;;17.56;33.19;100371.28;4970640;28;20037;-60
2022/03/04 09:48:16;;;;;;;21.35;12.15;;;;;;;17.46;31.78;100366.50;4968757;28;20018;-60
2022/03/04 09:50:44;;;;;;;19.00;11.40;;;;;;;16.92;32.72;100365.81;4970471;28;20053;-60
2022/03/04 09:53:11;;;;;;;28.80;12.55;;;;;;;17.11;32.86;100371.09;4974947;28;20030;-60
2022/03/04 09:55:39;;;;;;;23.83;12.75;;;;;;;16.91;32.36;100368.56;4974688;28;20031;-60
2022/03/04 09:58:15;;;;;;;20.65;12.50;;;;;;;16.94;33.12;100349.59;4974228;28;20037;-60
2022/03/04 10:00:43;;;;;;;21.00;12.40;;;;;;;17.34;32.10;100367.16;4972705;28;20031;-60
2022/03/04 10:03:21;;;;;;;20.77;11.85;;;;;;;17.40;32.58;100367.69;4973198;28;20038;-60
2022/03/04 10:05:54;;;;;;;19.30;11.10;;;;;;;17.64;31.93;100363.69;4973836;28;20047;-60
2022/03/04 10:08:21;;;;;;;17.80;11.10;;;;;;;17.60;31.07;100364.78;4974347;28;20074;-61
2022/03/04 10:10:54;;;;;;;19.90;11.10;;;;;;;17.60;31.39;100345.97;4973979;28;20050;-60
2022/03/04 10:13:38;;;;;;;;;;;;;;;17.93;32.39;100348.56;4974783;28;20102;-60
2022/03/04 10:16:04;;;;;;;23.55;12.02;;;;;;;17.57;31.29;100354.22;4974236;28;19914;-60
2022/03/04 10:18:30;;;;;;;21.17;11.40;;;;;;;17.50;32.04;100347.44;4973084;28;20038;-60
2022/03/04 10:20:56;;;;;;;21.58;12.25;;;;;;;17.38;31.53;100345.38;4973710;28;20073;-60
2022/03/04 10:23:25;;;;;;;21.30;12.00;;;;;;;17.46;32.06;100345.84;4973546;28;20114;-60
2022/03/04 10:25:56;;;;;;;19.98;12.23;;;;;;;17.77;31.89;100340.50;4972571;28;20054;-60
2022/03/04 10:28:24;;;;;;;21.55;11.52;;;;;;;17.81;29.77;100339.38;4973713;28;20034;-60
2022/03/04 10:30:51;;;;;;;20.60;11.35;;;;;;;18.38;31.62;100338.66;4956072;28;20037;-60
2022/03/04 10:33:19;;;;;;;23.80;12.20;;;;;;;18.06;30.29;100336.13;4974044;28;20026;-60
2022/03/04 10:35:45;;;;;;;20.90;11.00;;;;;;;17.70;30.72;100335.53;4972726;28;20114;-60
2022/03/04 10:38:22;;;;;;;21.63;11.63;;;;;;;18.25;30.67;100336.81;4972971;28;20026;-60
2022/03/04 10:40:49;;;;;;;20.48;10.95;;;;;;;18.57;30.08;100333.09;4971332;28;20034;-61
2022/03/04 10:43:22;;;;;;;18.38;11.52;;;;;;;18.72;29.06;100342.06;4973853;28;20035;-61
2022/03/04 10:45:57;;;;;;;;;;;;;;;18.38;29.38;100335.97;4954884;29;20027;-61
2022/03/04 10:48:22;;;;;;;17.70;9.98;;;;;;;18.27;30.03;100338.44;4954499;29;19917;-61
2022/03/04 10:50:57;;;;;;;18.80;11.43;;;;;;;18.54;30.69;100340.47;4953933;29;20031;-61
2022/03/04 10:53:30;;;;;;;20.15;10.98;;;;;;;18.58;30.48;100336.66;4954039;29;20038;-61
2022/03/04 10:55:58;;;;;;;20.92;10.77;;;;;;;18.56;29.76;100346.66;4953033;29;20491;-61
2022/03/04 10:58:29;;;;;;;21.95;11.50;;;;;;;18.44;28.98;100334.78;4952806;28;20027;-61
2022/03/04 11:00:58;;;;;;;20.70;10.95;;;;;;;18.38;29.79;100333.28;4972822;28;20030;-60
2022/03/04 11:03:29;;;;;;;23.35;11.40;;;;;;;18.77;30.09;100329.19;4972360;28;20085;-60
2022/03/04 11:05:58;;;;;;;21.52;11.80;;;;;;;19.04;30.90;100333.75;4973067;28;20046;-60
2022/03/04 11:08:24;;;;;;;22.92;11.70;;;;;;;19.14;29.11;100334.91;4973289;28;20029;-60
2022/03/04 11:10:50;;;;;;;23.17;12.95;;;;;;;18.91;31.20;100326.53;4973173;28;20441;-61
2022/03/04 11:13:17;;;;;;;22.42;11.20;;;;;;;19.21;30.35;100324.59;4972882;28;20022;-61
2022/03/04 11:15:43;;;;;;;24.55;12.43;;;;;;;19.03;29.25;100326.63;4972257;28;20490;-61